Time,TemperatureF,DewpointF,PressureIn,WindDirection,WindDirectionDegrees,WindSpeedMPH,WindSpeedGustMPH,Humidity,HourlyPrecipIn,Conditions,Clouds,dailyrainin,SoftwareType,DateUTC
2013-06-16 15:30:00,76.1,46.4,29.94,SW,219,3.0,5.8,35,0.00,,,-99.99,FreeWX-Wi 1.01,2013-06-16 22:30:00,
2013-06-16 15:35:00,76.1,47.8,29.94,WSW,256,2.0,2.7,37,0.00,,,-99.99,FreeWX-Wi 1.01,2013-06-16 22:35:00,
2013-06-16 15:40:00,77.0,48.0,29.94,West,259,2.0,4.0,36,0.00,,,-99.99,FreeWX-Wi 1.01,2013-06-16 22:40:00,
2013-06-16 15:45:00,77.4,46.8,29.94,West,270,2.0,6.3,34,0.00,,,-99.99,FreeWX-Wi 1.01,2013-06-16 22:45:00,
2013-06-16 15:50:00,77.4,46.8,29.94,WSW,252,2.0,8.1,34,0.00,,,-99.99,FreeWX-Wi 1.01,2013-06-16 22:50:00,
2013-06-16 15:55:00,77.7,45.5,29.94,SW,231,2.0,8.3,32,0.00,,,-99.99,FreeWX-Wi 1.01,2013-06-16 22:55:00,
2013-06-16 16:00:00,77.4,45.1,29.94,SW,227,2.0,7.2,32,0.00,,,-99.99,FreeWX-Wi 1.01,2013-06-16 23:00:00,
2013-06-16 16:05:00,76.1,45.0,29.94,SW,215,3.0,7.6,33,0.00,,,-99.99,FreeWX-Wi 1.01,2013-06-16 23:05:00,
2013-06-16 16:10:00,75.6,46.0,29.94,SSW,208,2.0,4.0,35,0.00,,,-99.99,FreeWX-Wi 1.01,2013-06-16 23:10:00,
2013-06-16 16:15:00,75.7,46.0,29.94,SSW,205,3.0,5.8,35,0.00,,,-99.99,FreeWX-Wi 1.01,2013-06-16 23:15:00,
2013-06-16 16:20:00,75.7,46.9,29.94,SSW,204,2.0,4.0,36,0.00,,,-99.99,FreeWX-Wi 1.01,2013-06-16 23:20:00,
2013-06-16 16:25:00,75.2,46.4,29.94,SSW,202,3.0,6.3,36,0.00,,,-99.99,FreeWX-Wi 1.01,2013-06-16 23:25:00,
2013-06-16 16:30:00,75.0,47.7,29.94,SSW,200,2.0,4.0,38,0.00,,,-99.99,FreeWX-Wi 1.01,2013-06-16 23:30:00,
2013-06-16 16:35:00,75.0,47.7,29.94,SSW,197,2.0,5.4,38,0.00,,,-99.99,FreeWX-Wi 1.01,2013-06-16 23:35:00,
2013-06-16 16:40:00,74.5,47.1,29.94,SSW,197,3.0,6.7,38,0.00,,,-99.99,FreeWX-Wi 1.01,2013-06-16 23:40:00,
2013-06-16 16:45:00,73.9,48.0,29.94,SSW,194,2.0,3.1,40,0.00,,,-99.99,FreeWX-Wi 1.01,2013-06-16 23:45:00,
2013-06-16 16:50:00,73.2,48.0,29.94,South,190,2.0,5.8,41,0.00,,,-99.99,FreeWX-Wi 1.01,2013-06-16 23:50:00,
2013-06-16 16:55:00,72.3,47.3,29.94,South,191,3.0,4.0,41,0.00,,,-99.99,FreeWX-Wi 1.01,2013-06-16 23:55:00,
2013-06-16 17:00:00,71.8,48.7,29.94,South,190,2.0,2.7,44,0.00,,,-99.99,FreeWX-Wi 1.01,2013-06-17 00:00:00,
2013-06-16 17:05:00,70.9,51.8,29.94,South,187,2.0,2.7,51,0.00,,,-99.99,FreeWX-Wi 1.01,2013-06-17 00:05:00,
2013-06-16 17:10:00,69.1,52.7,29.94,South,187,1.0,2.2,56,0.00,,,-99.99,FreeWX-Wi 1.01,2013-06-17 00:10:00,
2013-06-16 17:15:00,68.2,53.8,29.94,South,190,1.0,0.0,60,0.00,,,-99.99,FreeWX-Wi 1.01,2013-06-17 00:15:00,
2013-06-16 17:20:00,68.0,55.4,29.94,South,191,1.0,0.0,64,0.00,,,-99.99,FreeWX-Wi 1.01,2013-06-17 00:20:00,
2013-06-16 17:25:00,68.5,56.7,29.94,North,-999,0.0,0.0,66,0.00,,,-99.99,FreeWX-Wi 1.01,2013-06-17 00:25:00,
2013-06-16 17:30:00,69.8,59.2,29.94,North,-999,0.0,0.0,69,0.00,,,-99.99,FreeWX-Wi 1.01,2013-06-17 00:30:00,
2013-06-16 17:35:00,70.0,59.4,29.94,North,-999,0.0,2.7,69,0.00,,,-99.99,FreeWX-Wi 1.01,2013-06-17 00:35:00,
2013-06-16 17:40:00,69.6,59.4,29.94,North,-999,0.0,3.1,70,0.00,,,-99.99,FreeWX-Wi 1.01,2013-06-17 00:40:00,
2013-06-16 17:45:00,69.1,57.7,29.94,North,-999,0.0,4.0,67,0.00,,,-99.99,FreeWX-Wi 1.01,2013-06-17 00:45:00,
2013-06-16 17:50:00,68.7,56.5,29.94,North,-999,0.0,4.9,65,0.00,,,-99.99,FreeWX-Wi 1.01,2013-06-17 00:50:00,
2013-06-16 17:55:00,68.2,56.8,29.94,North,-999,0.0,2.2,67,0.00,,,-99.99,FreeWX-Wi 1.01,2013-06-17 00:55:00,
2013-06-16 18:00:00,67.5,56.5,29.94,North,-999,0.0,0.0,68,0.00,,,-99.99,FreeWX-Wi 1.01,2013-06-17 01:00:00,
2013-06-16 18:05:00,66.0,56.3,29.94,North,-999,0.0,3.1,71,0.04,,,-99.99,FreeWX-Wi 1.01,2013-06-17 01:05:00,
2013-06-16 18:10:00,64.9,55.8,29.94,North,-999,0.0,0.0,72,0.04,,,-99.99,FreeWX-Wi 1.01,2013-06-17 01:10:00,
2013-06-16 18:15:00,64.4,56.7,29.94,North,-999,0.0,0.0,76,0.04,,,-99.99,FreeWX-Wi 1.01,2013-06-17 01:15:00,
2013-06-16 18:20:00,64.4,57.4,29.94,North,-999,0.0,0.0,78,0.04,,,-99.99,FreeWX-Wi 1.01,2013-06-17 01:20:00,
2013-06-16 18:25:00,64.8,59.5,29.94,North,-999,0.0,0.0,83,0.04,,,-99.99,FreeWX-Wi 1.01,2013-06-17 01:25:00,
2013-06-16 18:30:00,64.9,60.3,29.94,North,-999,0.0,0.0,85,0.04,,,-99.99,FreeWX-Wi 1.01,2013-06-17 01:30:00,
2013-06-16 18:35:00,64.8,60.1,29.94,North,-999,0.0,0.0,85,0.04,,,-99.99,FreeWX-Wi 1.01,2013-06-17 01:35:00,
2013-06-16 18:40:00,65.3,60.6,29.94,North,-999,0.0,0.0,85,0.04,,,-99.99,FreeWX-Wi 1.01,2013-06-17 01:40:00,
2013-06-16 18:45:00,65.8,61.9,29.94,North,-999,0.0,0.0,87,0.04,,,-99.99,FreeWX-Wi 1.01,2013-06-17 01:45:00,
2013-06-16 18:50:00,66.0,62.1,29.94,North,-999,0.0,0.0,87,0.04,,,-99.99,FreeWX-Wi 1.01,2013-06-17 01:50:00,
2013-06-16 18:55:00,66.2,61.9,29.94,North,-999,0.0,2.7,86,0.04,,,-99.99,FreeWX-Wi 1.01,2013-06-17 01:55:00,
2013-06-16 19:01:00,66.6,61.9,29.94,North,-999,0.0,2.2,85,0.04,,,-99.99,FreeWX-Wi 1.01,2013-06-17 02:01:00,
2013-06-16 19:06:00,66.6,61.2,29.94,North,-999,0.0,0.0,83,0.00,,,-99.99,FreeWX-Wi 1.01,2013-06-17 02:06:00,
2013-06-16 19:11:00,67.1,61.3,29.94,North,-999,0.0,3.1,82,0.00,,,-99.99,FreeWX-Wi 1.01,2013-06-17 02:11:00,
2013-06-16 19:16:00,67.1,61.0,29.94,North,-999,0.0,3.1,81,0.00,,,-99.99,FreeWX-Wi 1.01,2013-06-17 02:16:00,
2013-06-16 19:21:00,66.7,59.0,29.97,North,-999,0.0,4.0,76,0.00,,,-99.99,FreeWX-Wi 1.01,2013-06-17 02:21:00,
2013-06-16 19:26:00,66.9,58.3,29.97,North,-999,0.0,2.7,74,0.00,,,-99.99,FreeWX-Wi 1.01,2013-06-17 02:26:00,
2013-06-16 19:31:00,66.6,57.6,29.97,North,-999,0.0,0.0,73,0.00,,,-99.99,FreeWX-Wi 1.01,2013-06-17 02:31:00,
2013-06-16 19:36:00,66.2,58.1,29.97,North,-999,0.0,3.1,75,0.00,,,-99.99,FreeWX-Wi 1.01,2013-06-17 02:36:00,
2013-06-16 19:41:00,66.2,58.5,29.97,North,-999,0.0,0.0,76,0.00,,,-99.99,FreeWX-Wi 1.01,2013-06-17 02:41:00,
2013-06-16 19:46:00,66.4,58.6,29.97,North,-999,0.0,2.2,76,0.00,,,-99.99,FreeWX-Wi 1.01,2013-06-17 02:46:00,
2013-06-16 19:51:00,66.6,59.2,29.97,North,-999,0.0,3.6,77,0.00,,,-99.99,FreeWX-Wi 1.01,2013-06-17 02:51:00,
2013-06-16 19:56:00,66.6,59.2,29.97,North,-999,0.0,0.0,77,0.00,,,-99.99,FreeWX-Wi 1.01,2013-06-17 02:56:00,
2013-06-16 20:01:00,66.2,59.2,29.97,North,-999,0.0,3.1,78,0.00,,,-99.99,FreeWX-Wi 1.01,2013-06-17 03:01:00,
2013-06-16 20:06:00,66.0,59.0,29.97,North,-999,0.0,2.7,78,0.00,,,-99.99,FreeWX-Wi 1.01,2013-06-17 03:06:00,
2013-06-16 20:11:00,65.5,58.1,29.97,North,-999,0.0,2.2,77,0.00,,,-99.99,FreeWX-Wi 1.01,2013-06-17 03:11:00,
2013-06-16 20:16:00,65.1,57.4,29.97,North,-999,0.0,0.0,76,0.00,,,-99.99,FreeWX-Wi 1.01,2013-06-17 03:16:00,
2013-06-16 20:21:00,64.6,56.5,29.97,North,-999,0.0,0.0,75,0.00,,,-99.99,FreeWX-Wi 1.01,2013-06-17 03:21:00,
2013-06-16 20:26:00,63.9,55.0,29.97,North,-999,0.0,0.0,73,0.00,,,-99.99,FreeWX-Wi 1.01,2013-06-17 03:26:00,
2013-06-16 20:31:00,63.3,54.1,29.97,North,-999,0.0,0.0,72,0.00,,,-99.99,FreeWX-Wi 1.01,2013-06-17 03:31:00,
2013-06-16 20:36:00,62.8,53.2,29.97,North,-999,0.0,0.0,71,0.00,,,-99.99,FreeWX-Wi 1.01,2013-06-17 03:36:00,
2013-06-16 20:41:00,62.6,53.1,29.97,North,-999,0.0,0.0,71,0.00,,,-99.99,FreeWX-Wi 1.01,2013-06-17 03:41:00,
2013-06-16 20:46:00,62.2,52.7,29.97,North,-999,0.0,0.0,71,0.00,,,-99.99,FreeWX-Wi 1.01,2013-06-17 03:46:00,
2013-06-16 20:51:00,62.1,52.5,29.97,North,-999,0.0,0.0,71,0.00,,,-99.99,FreeWX-Wi 1.01,2013-06-17 03:51:00,
2013-06-16 20:56:00,61.9,52.3,29.97,North,-999,0.0,0.0,71,0.00,,,-99.99,FreeWX-Wi 1.01,2013-06-17 03:56:00,
2013-06-16 21:01:00,61.7,52.2,29.97,North,-999,0.0,0.0,71,0.00,,,-99.99,FreeWX-Wi 1.01,2013-06-17 04:01:00,
2013-06-16 21:06:00,61.3,52.2,29.97,North,-999,0.0,0.0,72,0.00,,,-99.99,FreeWX-Wi 1.01,2013-06-17 04:06:00,
2013-06-16 21:11:00,61.3,52.2,29.97,North,-999,0.0,2.2,72,0.00,,,-99.99,FreeWX-Wi 1.01,2013-06-17 04:11:00,
2013-06-16 21:16:00,61.0,51.4,29.97,North,-999,0.0,0.0,71,0.00,,,-99.99,FreeWX-Wi 1.01,2013-06-17 04:16:00,
2013-06-16 21:21:00,60.6,51.6,29.97,North,-999,0.0,0.0,72,0.00,,,-99.99,FreeWX-Wi 1.01,2013-06-17 04:21:00,
2013-06-16 21:26:00,60.1,51.1,29.97,North,-999,0.0,0.0,72,0.00,,,-99.99,FreeWX-Wi 1.01,2013-06-17 04:26:00,
2013-06-16 21:31:00,59.7,50.7,29.97,North,-999,0.0,0.0,72,0.00,,,-99.99,FreeWX-Wi 1.01,2013-06-17 04:31:00,
2013-06-16 21:36:00,59.5,50.9,29.97,North,-999,0.0,0.0,73,0.00,,,-99.99,FreeWX-Wi 1.01,2013-06-17 04:36:00,
2013-06-16 21:41:00,59.4,51.1,29.97,North,-999,0.0,0.0,74,0.00,,,-99.99,FreeWX-Wi 1.01,2013-06-17 04:41:00,
2013-06-16 21:46:00,59.2,51.3,29.97,North,-999,0.0,0.0,75,0.00,,,-99.99,FreeWX-Wi 1.01,2013-06-17 04:46:00,
2013-06-16 21:51:00,59.0,51.1,29.97,North,-999,0.0,0.0,75,0.00,,,-99.99,FreeWX-Wi 1.01,2013-06-17 04:51:00,
2013-06-16 21:56:00,58.8,51.3,29.97,North,-999,0.0,0.0,76,0.00,,,-99.99,FreeWX-Wi 1.01,2013-06-17 04:56:00,
2013-06-16 22:01:00,58.8,51.3,29.97,North,-999,0.0,0.0,76,0.00,,,-99.99,FreeWX-Wi 1.01,2013-06-17 05:01:00,
2013-06-16 22:06:00,58.8,51.6,29.97,North,-999,0.0,2.2,77,0.00,,,-99.99,FreeWX-Wi 1.01,2013-06-17 05:06:00,
2013-06-16 22:11:00,58.6,51.8,29.97,North,-999,0.0,2.2,78,0.00,,,-99.99,FreeWX-Wi 1.01,2013-06-17 05:11:00,
2013-06-16 22:16:00,58.6,52.2,29.97,North,-999,0.0,0.0,79,0.00,,,-99.99,FreeWX-Wi 1.01,2013-06-17 05:16:00,
2013-06-16 22:21:00,58.6,52.5,29.97,North,-999,0.0,0.0,80,0.00,,,-99.99,FreeWX-Wi 1.01,2013-06-17 05:21:00,
2013-06-16 22:26:00,58.5,52.7,29.97,North,-999,0.0,2.2,81,0.00,,,-99.99,FreeWX-Wi 1.01,2013-06-17 05:26:00,
2013-06-16 22:31:00,58.5,53.1,29.97,North,-999,0.0,0.0,82,0.00,,,-99.99,FreeWX-Wi 1.01,2013-06-17 05:31:00,
2013-06-16 22:36:00,58.1,52.7,29.97,North,-999,0.0,0.0,82,0.00,,,-99.99,FreeWX-Wi 1.01,2013-06-17 05:36:00,
2013-06-16 22:41:00,57.9,52.7,29.97,North,-999,0.0,0.0,83,0.00,,,-99.99,FreeWX-Wi 1.01,2013-06-17 05:41:00,
2013-06-16 22:46:00,57.7,52.5,29.97,North,-999,0.0,0.0,83,0.00,,,-99.99,FreeWX-Wi 1.01,2013-06-17 05:46:00,
2013-06-16 22:51:00,57.7,52.5,29.97,North,-999,0.0,0.0,83,0.00,,,-99.99,FreeWX-Wi 1.01,2013-06-17 05:51:00,
2013-06-16 22:56:00,57.6,52.7,29.97,North,-999,0.0,0.0,84,0.00,,,-99.99,FreeWX-Wi 1.01,2013-06-17 05:56:00,
2013-06-16 23:01:00,57.6,52.7,29.97,North,-999,0.0,0.0,84,0.00,,,-99.99,FreeWX-Wi 1.01,2013-06-17 06:01:00,
2013-06-16 23:06:00,57.4,52.5,30.00,North,-999,0.0,0.0,84,0.00,,,-99.99,FreeWX-Wi 1.01,2013-06-17 06:06:00,
2013-06-16 23:11:00,57.2,52.7,30.00,North,-999,0.0,0.0,85,0.00,,,-99.99,FreeWX-Wi 1.01,2013-06-17 06:11:00,
2013-06-16 23:16:00,57.4,53.2,30.00,North,-999,0.0,0.0,86,0.00,,,-99.99,FreeWX-Wi 1.01,2013-06-17 06:16:00,
2013-06-16 23:21:00,57.2,53.1,30.00,North,-999,0.0,0.0,86,0.00,,,-99.99,FreeWX-Wi 1.01,2013-06-17 06:21:00,
2013-06-16 23:26:00,57.0,53.2,30.00,North,-999,0.0,0.0,87,0.00,,,-99.99,FreeWX-Wi 1.01,2013-06-17 06:26:00,
2013-06-16 23:31:00,56.7,52.9,30.00,North,-999,0.0,0.0,87,0.00,,,-99.99,FreeWX-Wi 1.01,2013-06-17 06:31:00,
2013-06-16 23:36:00,56.5,52.9,30.00,North,-999,0.0,0.0,88,0.00,,,-99.99,FreeWX-Wi 1.01,2013-06-17 06:36:00,
2013-06-16 23:41:00,56.3,52.7,30.00,North,-999,0.0,0.0,88,0.00,,,-99.99,FreeWX-Wi 1.01,2013-06-17 06:41:00,
2013-06-16 23:46:00,56.3,53.1,30.00,North,-999,0.0,0.0,89,0.00,,,-99.99,FreeWX-Wi 1.01,2013-06-17 06:46:00,
2013-06-16 23:51:00,55.9,52.7,30.00,North,-999,0.0,0.0,89,0.00,,,-99.99,FreeWX-Wi 1.01,2013-06-17 06:51:00,
2013-06-16 23:56:00,55.8,52.5,30.00,North,-999,0.0,0.0,89,0.00,,,-99.99,FreeWX-Wi 1.01,2013-06-17 06:56:00,